createdAt,value
2024-04-03T00:00:02.023Z,8
2024-04-03T00:01:02.213Z,9
2024-04-03T00:02:02.601Z,9
2024-04-03T00:03:02.575Z,8
2024-04-03T00:05:03.031Z,11
2024-04-03T00:06:02.678Z,11
2024-04-03T00:07:02.227Z,8
2024-04-03T00:08:02.358Z,8
2024-04-03T00:09:02.399Z,8
2024-04-03T00:10:02.218Z,8
2024-04-03T00:11:02.086Z,8
2024-04-03T00:12:02.812Z,8
2024-04-03T00:13:01.831Z,11
2024-04-03T00:14:02.795Z,11
2024-04-03T00:15:02.182Z,7
2024-04-03T00:16:01.876Z,7
2024-04-03T00:17:02.957Z,6
2024-04-03T00:18:03.058Z,6
2024-04-03T00:19:02.741Z,4
2024-04-03T00:20:02.291Z,4
2024-04-03T00:21:02.262Z,7
2024-04-03T00:22:02.606Z,7
2024-04-03T00:23:02.443Z,8
2024-04-03T00:24:02.268Z,8
2024-04-03T00:25:02.075Z,8
2024-04-03T00:26:02.241Z,8
2024-04-03T00:27:01.950Z,6
2024-04-03T00:28:03.021Z,6
2024-04-03T00:29:02.321Z,8
2024-04-03T00:30:01.967Z,8
2024-04-03T00:32:02.060Z,13
2024-04-03T00:34:02.072Z,9
2024-04-03T00:35:02.944Z,9
2024-04-03T00:36:01.947Z,7
2024-04-03T00:37:03.183Z,7
2024-04-03T00:38:01.927Z,7
2024-04-03T00:39:02.567Z,4
2024-04-03T00:40:02.254Z,4
2024-04-03T00:41:01.966Z,11
2024-04-03T00:42:02.693Z,11
2024-04-03T00:43:01.945Z,11
2024-04-03T00:45:02.799Z,7
2024-04-03T00:46:02.788Z,7
2024-04-03T00:47:02.178Z,6
2024-04-03T00:48:02.613Z,6
2024-04-03T00:49:01.879Z,9
2024-04-03T00:50:02.951Z,9
2024-04-03T00:51:02.388Z,6
2024-04-03T00:52:02.844Z,6
2024-04-03T00:53:02.073Z,6
2024-04-03T00:54:02.013Z,6
2024-04-03T00:55:02.576Z,5
2024-04-03T00:56:02.699Z,5
2024-04-03T00:57:02.707Z,3
2024-04-03T00:58:02.036Z,3
2024-04-03T00:59:01.830Z,6
2024-04-03T01:00:02.597Z,6
2024-04-03T01:01:02.215Z,6
2024-04-03T01:03:02.737Z,7
2024-04-03T01:04:02.242Z,7
2024-04-03T01:05:02.465Z,9
2024-04-03T01:06:02.514Z,9
2024-04-03T01:07:01.994Z,11
2024-04-03T01:08:02.844Z,11
2024-04-03T01:09:02.517Z,9
2024-04-03T01:10:03.126Z,9
2024-04-03T01:11:02.555Z,9
2024-04-03T01:12:02.119Z,9
2024-04-03T01:13:02.942Z,7
2024-04-03T01:14:02.236Z,7
2024-04-03T01:16:03.015Z,8
2024-04-03T01:17:02.887Z,7
2024-04-03T01:18:02.827Z,7
2024-04-03T01:20:02.149Z,7
2024-04-03T01:21:02.783Z,8
2024-04-03T01:22:02.124Z,8
2024-04-03T01:23:03.091Z,7
2024-04-03T01:25:02.707Z,6
2024-04-03T01:26:02.483Z,6
2024-04-03T01:27:02.184Z,3
2024-04-03T01:29:02.735Z,5
2024-04-03T01:30:03.029Z,5
2024-04-03T01:31:02.219Z,5
2024-04-03T01:32:02.741Z,5
2024-04-03T01:34:03.147Z,4
2024-04-03T01:35:02.669Z,4
2024-04-03T01:36:01.616Z,4
2024-04-03T01:37:02.703Z,0
2024-04-03T01:38:02.486Z,0
2024-04-03T01:39:02.071Z,0
2024-04-03T01:40:02.053Z,0
2024-04-03T01:41:02.815Z,0
2024-04-03T01:42:02.245Z,0
2024-04-03T01:43:02.249Z,0
2024-04-03T01:44:02.483Z,0
2024-04-03T01:45:02.828Z,0
2024-04-03T01:46:02.305Z,0
2024-04-03T01:47:02.368Z,0
2024-04-03T01:48:02.284Z,0
2024-04-03T01:49:02.525Z,0
2024-04-03T01:50:02.922Z,0
2024-04-03T01:51:02.581Z,1
2024-04-03T01:52:02.357Z,1
2024-04-03T01:53:02.176Z,0
2024-04-03T01:54:02.025Z,0
2024-04-03T01:55:02.521Z,0
2024-04-03T01:56:02.465Z,0
2024-04-03T01:57:02.336Z,0
2024-04-03T01:58:02.851Z,0
2024-04-03T01:59:02.396Z,4
2024-04-03T02:00:03.378Z,4
2024-04-03T02:01:02.446Z,4
2024-04-03T02:02:02.206Z,0
2024-04-03T02:03:02.598Z,4
2024-04-03T02:04:02.127Z,4
2024-04-03T02:05:02.760Z,4
2024-04-03T02:06:02.535Z,4
2024-04-03T02:07:02.889Z,4
2024-04-03T02:08:02.527Z,4
2024-04-03T02:09:02.221Z,4
2024-04-03T02:10:02.083Z,4
2024-04-03T02:11:03.035Z,5
2024-04-03T02:12:02.289Z,5
2024-04-03T02:13:02.482Z,4
2024-04-03T02:14:02.198Z,4
2024-04-03T02:15:02.233Z,5
2024-04-03T02:16:02.192Z,5
2024-04-03T02:17:02.623Z,4
2024-04-03T02:18:02.094Z,4
2024-04-03T02:19:02.010Z,6
2024-04-03T02:20:02.253Z,6
2024-04-03T02:22:02.852Z,5
2024-04-03T02:23:05.605Z,3
2024-04-03T02:24:12.811Z,3
2024-04-03T02:25:02.869Z,1
2024-04-03T02:26:03.097Z,1
2024-04-03T02:27:02.296Z,3
2024-04-03T02:28:02.340Z,3
2024-04-03T02:29:02.332Z,1
2024-04-03T02:31:02.388Z,3
2024-04-03T02:32:02.797Z,3
2024-04-03T02:33:02.627Z,4
2024-04-03T02:34:02.550Z,4
2024-04-03T02:35:02.598Z,3
2024-04-03T02:36:02.539Z,3
2024-04-03T02:37:01.974Z,1
2024-04-03T02:38:01.436Z,1
2024-04-03T02:39:02.169Z,4
2024-04-03T02:40:02.605Z,4
2024-04-03T02:41:02.691Z,4
2024-04-03T02:42:02.006Z,4
2024-04-03T02:43:02.139Z,3
2024-04-03T02:44:02.127Z,3
2024-04-03T02:45:02.507Z,4
2024-04-03T02:46:02.640Z,4
2024-04-03T02:47:02.184Z,4
2024-04-03T02:48:02.059Z,4
2024-04-03T02:49:02.029Z,3
2024-04-03T02:50:02.527Z,3
2024-04-03T02:51:03.073Z,1
2024-04-03T02:52:01.502Z,1
2024-04-03T02:53:02.408Z,3
2024-04-03T02:54:02.331Z,3
2024-04-03T02:55:02.959Z,1
2024-04-03T02:56:02.927Z,1
2024-04-03T02:57:02.436Z,3
2024-04-03T02:58:02.468Z,3
2024-04-03T02:59:02.080Z,0
2024-04-03T03:00:02.762Z,0
2024-04-03T03:01:02.057Z,0
2024-04-03T03:02:03.154Z,0
2024-04-03T03:03:02.168Z,0
2024-04-03T03:04:02.218Z,0
2024-04-03T03:05:02.715Z,1
2024-04-03T03:06:02.924Z,1
2024-04-03T03:07:02.030Z,3
2024-04-03T03:08:02.533Z,3
2024-04-03T03:09:02.636Z,0
2024-04-03T03:10:02.424Z,0
2024-04-03T03:11:02.545Z,1
2024-04-03T03:13:02.734Z,0
2024-04-03T03:14:03.109Z,0
2024-04-03T03:15:02.908Z,3
2024-04-03T03:16:02.233Z,3
2024-04-03T03:17:02.476Z,1
2024-04-03T03:18:02.655Z,1
2024-04-03T03:19:02.844Z,1
2024-04-03T03:22:02.454Z,0
2024-04-03T03:23:02.022Z,3
2024-04-03T03:25:02.133Z,5
2024-04-03T03:26:02.496Z,5
2024-04-03T03:27:02.234Z,4
2024-04-03T03:28:02.754Z,4
2024-04-03T03:29:02.507Z,4
2024-04-03T03:30:02.265Z,4
2024-04-03T03:31:02.167Z,3
2024-04-03T03:32:02.225Z,3
2024-04-03T03:33:02.239Z,4
2024-04-03T03:34:02.597Z,4
2024-04-03T03:35:03.060Z,5
2024-04-03T03:36:02.589Z,5
2024-04-03T03:37:02.371Z,6
2024-04-03T03:38:02.377Z,6
2024-04-03T03:39:01.831Z,5
2024-04-03T03:40:02.875Z,5
2024-04-03T03:41:02.327Z,6
2024-04-03T03:42:02.851Z,6
2024-04-03T03:44:02.465Z,5
2024-04-03T03:46:02.664Z,5
2024-04-03T03:47:02.781Z,5
2024-04-03T03:48:01.939Z,5
2024-04-03T03:49:02.014Z,4
2024-04-03T03:50:01.869Z,4
2024-04-03T03:51:02.330Z,4
2024-04-03T03:52:02.448Z,4
2024-04-03T03:53:02.732Z,4
2024-04-03T03:55:02.199Z,5
2024-04-03T03:56:02.928Z,5
2024-04-03T03:57:01.984Z,6
2024-04-03T03:58:02.562Z,6
2024-04-03T03:59:02.478Z,5
2024-04-03T04:00:02.573Z,5
2024-04-03T04:01:02.412Z,5
2024-04-03T04:02:02.294Z,5
2024-04-03T04:03:02.603Z,4
2024-04-03T04:04:01.753Z,4
2024-04-03T04:06:02.660Z,5
2024-04-03T04:07:02.820Z,5
2024-04-03T04:08:01.717Z,5
2024-04-03T04:09:02.806Z,6
2024-04-03T04:10:02.953Z,6
2024-04-03T04:11:02.605Z,5
2024-04-03T04:12:02.354Z,5
2024-04-03T04:13:02.461Z,5
2024-04-03T04:14:02.007Z,5
2024-04-03T04:15:02.911Z,5
2024-04-03T04:17:03.144Z,6
2024-04-03T04:18:02.507Z,6
2024-04-03T04:19:02.214Z,5
2024-04-03T04:20:02.021Z,5
2024-04-03T04:21:02.089Z,6
2024-04-03T04:22:01.965Z,6
2024-04-03T04:23:02.476Z,6
2024-04-03T04:24:02.313Z,6
2024-04-03T04:25:02.215Z,5
2024-04-03T04:26:02.137Z,5
2024-04-03T04:27:02.453Z,6
2024-04-03T04:28:02.031Z,6
2024-04-03T04:29:02.204Z,6
2024-04-03T04:30:02.673Z,6
2024-04-03T04:31:01.977Z,7
2024-04-03T04:32:02.573Z,7
2024-04-03T04:33:02.567Z,6
2024-04-03T04:34:02.116Z,6
2024-04-03T04:35:04.419Z,7
2024-04-03T04:36:02.373Z,7
2024-04-03T04:37:02.895Z,7
2024-04-03T04:38:02.023Z,7
2024-04-03T04:39:02.422Z,6
2024-04-03T04:40:02.502Z,6
2024-04-03T04:41:01.988Z,5
2024-04-03T04:42:02.425Z,5
2024-04-03T04:44:02.225Z,5
2024-04-03T04:45:02.755Z,4
2024-04-03T04:46:02.033Z,4
2024-04-03T04:47:02.705Z,4
2024-04-03T04:48:02.662Z,4
2024-04-03T04:49:02.086Z,5
2024-04-03T04:50:02.638Z,5
2024-04-03T04:51:02.231Z,5
2024-04-03T04:52:02.958Z,5
2024-04-03T04:53:02.609Z,4
2024-04-03T04:54:02.258Z,4
2024-04-03T04:55:02.803Z,4
2024-04-03T04:56:01.975Z,4
2024-04-03T04:57:02.256Z,4
2024-04-03T04:58:02.383Z,4
2024-04-03T04:59:02.731Z,4
2024-04-03T05:00:03.091Z,4
2024-04-03T05:01:02.190Z,5
2024-04-03T05:02:02.845Z,5
2024-04-03T05:03:02.675Z,5
2024-04-03T05:04:02.540Z,5
2024-04-03T05:05:02.122Z,4
2024-04-03T05:06:02.551Z,4
2024-04-03T05:07:02.088Z,4
2024-04-03T05:08:02.360Z,4
2024-04-03T05:09:02.073Z,5
2024-04-03T05:10:02.468Z,5
2024-04-03T05:12:02.264Z,6
2024-04-03T05:13:01.998Z,6
2024-04-03T05:14:02.795Z,6
2024-04-03T05:15:02.452Z,6
2024-04-03T05:16:02.165Z,6
2024-04-03T05:17:02.328Z,6
2024-04-03T05:19:02.234Z,6
2024-04-03T05:20:01.840Z,6
2024-04-03T05:21:02.495Z,5
2024-04-03T05:23:02.141Z,5
2024-04-03T05:24:02.877Z,5
2024-04-03T05:25:02.596Z,4
2024-04-03T05:26:02.468Z,4
2024-04-03T05:27:02.422Z,4
2024-04-03T05:28:02.739Z,4
2024-04-03T05:29:02.269Z,4
2024-04-03T05:31:02.746Z,1
2024-04-03T05:32:02.293Z,1
2024-04-03T05:33:02.315Z,1
2024-04-03T05:34:02.259Z,1
2024-04-03T05:35:02.712Z,3
2024-04-03T05:36:02.100Z,3
2024-04-03T05:37:02.625Z,3
2024-04-03T05:38:02.798Z,3
2024-04-03T05:39:02.112Z,3
2024-04-03T05:40:02.865Z,3
2024-04-03T05:41:10.194Z,3
2024-04-03T05:43:02.038Z,4
2024-04-03T05:44:02.374Z,4
2024-04-03T05:45:02.283Z,4
2024-04-03T05:46:02.714Z,4
2024-04-03T05:47:02.870Z,4
2024-04-03T05:48:02.527Z,4
2024-04-03T05:49:02.310Z,4
2024-04-03T05:50:02.793Z,4
2024-04-03T05:51:02.516Z,4
2024-04-03T05:52:02.349Z,4
2024-04-03T05:53:01.932Z,5
2024-04-03T05:54:02.272Z,5
2024-04-03T05:55:02.828Z,5
2024-04-03T05:56:02.254Z,5
2024-04-03T05:58:02.148Z,3
2024-04-03T05:59:02.182Z,4
2024-04-03T06:00:02.538Z,4
2024-04-03T06:01:02.754Z,4
2024-04-03T06:02:02.819Z,4
2024-04-03T06:03:02.495Z,3
2024-04-03T06:04:02.411Z,3
2024-04-03T06:06:02.036Z,3
2024-04-03T06:08:02.511Z,3
2024-04-03T06:09:01.668Z,4
2024-04-03T06:10:01.952Z,4
2024-04-03T06:11:02.008Z,4
2024-04-03T06:12:02.490Z,4
2024-04-03T06:13:02.096Z,4
2024-04-03T06:14:01.772Z,4
2024-04-03T06:15:02.285Z,4
2024-04-03T06:16:02.251Z,4
2024-04-03T06:17:02.759Z,5
2024-04-03T06:18:02.354Z,5
2024-04-03T06:19:02.088Z,4
2024-04-03T06:20:02.637Z,4
2024-04-03T06:21:02.285Z,4
2024-04-03T06:22:01.958Z,4
2024-04-03T06:23:02.104Z,4
2024-04-03T06:24:02.185Z,4
2024-04-03T06:25:02.307Z,4
2024-04-03T06:26:02.481Z,4
2024-04-03T06:27:02.394Z,4
2024-04-03T06:28:02.192Z,4
2024-04-03T06:29:02.445Z,5
2024-04-03T06:30:02.601Z,5
2024-04-03T06:31:02.521Z,5
2024-04-03T06:32:02.020Z,5
2024-04-03T06:33:02.268Z,4
2024-04-03T06:34:02.308Z,4
2024-04-03T06:35:02.337Z,5
2024-04-03T06:37:02.418Z,5
2024-04-03T06:38:02.410Z,5
2024-04-03T06:39:02.156Z,5
2024-04-03T06:40:03.204Z,5
2024-04-03T06:41:02.151Z,5
2024-04-03T06:42:02.614Z,5
2024-04-03T06:43:02.811Z,4
2024-04-03T06:44:02.648Z,4
2024-04-03T06:45:02.559Z,5
2024-04-03T06:46:02.700Z,5
2024-04-03T06:47:01.929Z,4
2024-04-03T06:48:02.546Z,4
2024-04-03T06:49:01.775Z,0
2024-04-03T06:50:02.162Z,0
2024-04-03T06:51:02.090Z,6
2024-04-03T06:52:02.995Z,6
2024-04-03T06:53:02.612Z,4
2024-04-03T06:54:02.774Z,4
2024-04-03T06:55:02.965Z,4
2024-04-03T06:56:02.690Z,4
2024-04-03T06:58:01.951Z,5
2024-04-03T06:59:02.417Z,5
2024-04-03T07:00:02.446Z,5
2024-04-03T07:01:02.700Z,5
2024-04-03T07:02:03.111Z,5
2024-04-03T07:03:01.877Z,5
2024-04-03T07:04:03.072Z,5
2024-04-03T07:05:02.921Z,6
2024-04-03T07:06:02.757Z,6
2024-04-03T07:07:02.242Z,6
2024-04-03T07:09:02.993Z,6
2024-04-03T07:10:02.336Z,6
2024-04-03T07:11:02.049Z,7
2024-04-03T07:12:02.534Z,7
2024-04-03T07:13:02.617Z,6
2024-04-03T07:14:02.450Z,6
2024-04-03T07:15:02.912Z,6
2024-04-03T07:16:02.714Z,6
2024-04-03T07:19:02.535Z,5
2024-04-03T07:20:02.281Z,5
2024-04-03T07:21:02.705Z,5
2024-04-03T07:23:02.252Z,5
2024-04-03T07:24:02.102Z,5
2024-04-03T07:25:03.049Z,3
2024-04-03T07:26:02.880Z,3
2024-04-03T07:27:02.393Z,4
2024-04-03T07:28:03.026Z,4
2024-04-03T07:29:02.253Z,6
2024-04-03T07:30:02.225Z,6
2024-04-03T07:31:02.686Z,5
2024-04-03T07:32:02.078Z,5
2024-04-03T07:33:02.620Z,4
2024-04-03T07:34:02.639Z,4
2024-04-03T07:35:02.555Z,3
2024-04-03T07:36:02.483Z,3
2024-04-03T07:37:02.277Z,3
2024-04-03T07:38:02.524Z,3
2024-04-03T07:39:02.170Z,0
2024-04-03T07:40:02.648Z,0
2024-04-03T07:41:01.963Z,1
2024-04-03T07:42:02.709Z,1
2024-04-03T07:43:02.436Z,0
2024-04-03T07:44:02.792Z,0
2024-04-03T07:45:02.876Z,3
2024-04-03T07:46:02.296Z,3
2024-04-03T07:47:02.956Z,3
2024-04-03T07:48:02.655Z,3
2024-04-03T07:49:02.118Z,5
2024-04-03T07:50:02.240Z,5
2024-04-03T07:51:02.751Z,4
2024-04-03T07:52:02.298Z,4
2024-04-03T07:53:02.852Z,5
2024-04-03T07:54:02.294Z,5
2024-04-03T07:55:01.999Z,3
2024-04-03T07:56:02.142Z,3
2024-04-03T07:57:02.846Z,3
2024-04-03T07:58:02.759Z,3
2024-04-03T07:59:02.107Z,3
2024-04-03T08:00:02.396Z,3
2024-04-03T08:01:02.892Z,3
2024-04-03T08:02:03.203Z,4
2024-04-03T08:03:03.725Z,1
2024-04-03T08:04:02.353Z,1
2024-04-03T08:05:02.126Z,1
2024-04-03T08:06:01.801Z,1
2024-04-03T08:07:02.547Z,1
2024-04-03T08:08:02.050Z,1
2024-04-03T08:09:02.731Z,1
2024-04-03T08:11:02.648Z,4
2024-04-03T08:12:02.592Z,4
2024-04-03T08:13:02.564Z,3
2024-04-03T08:14:02.183Z,3
2024-04-03T08:15:01.613Z,3
2024-04-03T08:17:02.040Z,3
2024-04-03T08:18:02.151Z,3
2024-04-03T08:19:02.659Z,3
2024-04-03T08:20:02.702Z,3
2024-04-03T08:21:03.033Z,3
2024-04-03T08:22:02.372Z,3
2024-04-03T08:23:02.568Z,0
2024-04-03T08:24:02.254Z,0
2024-04-03T08:25:02.343Z,3
2024-04-03T08:26:02.727Z,3
2024-04-03T08:27:02.730Z,0
2024-04-03T08:28:01.886Z,0
2024-04-03T08:29:02.023Z,3
2024-04-03T08:31:02.088Z,1
2024-04-03T08:32:02.099Z,1
2024-04-03T08:33:02.247Z,1
2024-04-03T08:34:09.384Z,1
2024-04-03T08:35:02.834Z,1
2024-04-03T08:36:02.129Z,1
2024-04-03T08:37:02.743Z,1
2024-04-03T08:38:03.169Z,1
2024-04-03T08:39:02.743Z,3
2024-04-03T08:40:03.007Z,3
2024-04-03T08:42:02.558Z,1
2024-04-03T08:43:02.519Z,0
2024-04-03T08:44:02.827Z,0
2024-04-03T08:45:02.588Z,1
2024-04-03T08:46:02.699Z,1
2024-04-03T08:47:02.708Z,1
2024-04-03T08:48:02.549Z,1
2024-04-03T08:50:02.456Z,3
2024-04-03T08:51:02.645Z,1
2024-04-03T08:52:02.643Z,1
2024-04-03T08:53:02.522Z,1
2024-04-03T08:54:02.499Z,1
2024-04-03T08:55:02.862Z,3
2024-04-03T08:56:02.401Z,3
2024-04-03T08:57:01.754Z,3
2024-04-03T08:58:02.596Z,3
2024-04-03T08:59:02.679Z,1
2024-04-03T09:00:03.099Z,1
2024-04-03T09:01:02.308Z,1
2024-04-03T09:02:02.665Z,3
2024-04-03T09:03:02.498Z,3
2024-04-03T09:04:02.565Z,3
2024-04-03T09:05:02.182Z,0
2024-04-03T09:06:03.335Z,0
2024-04-03T09:07:02.993Z,0
2024-04-03T09:08:09.812Z,1
2024-04-03T09:09:02.646Z,3
2024-04-03T09:10:02.124Z,3
2024-04-03T09:11:02.551Z,1
2024-04-03T09:13:02.901Z,1
2024-04-03T09:15:02.889Z,4
2024-04-03T09:16:02.294Z,4
2024-04-03T09:17:03.458Z,4
2024-04-03T09:18:02.493Z,4
2024-04-03T09:19:02.023Z,7
2024-04-03T09:20:02.260Z,7
2024-04-03T09:21:02.814Z,6
2024-04-03T09:22:02.386Z,6
2024-04-03T09:23:01.981Z,6
2024-04-03T09:24:02.250Z,6
2024-04-03T09:26:02.428Z,5
2024-04-03T09:27:02.885Z,4
2024-04-03T09:28:02.344Z,4
2024-04-03T09:29:02.549Z,1
2024-04-03T09:30:02.077Z,1
2024-04-03T09:31:02.592Z,3
2024-04-03T09:33:02.721Z,4
2024-04-03T09:34:02.455Z,4
2024-04-03T09:35:03.066Z,0
2024-04-03T09:36:02.546Z,0
2024-04-03T09:37:02.337Z,4
2024-04-03T09:38:02.437Z,4
2024-04-03T09:39:02.214Z,3
2024-04-03T09:40:02.343Z,3
2024-04-03T09:41:02.659Z,9
2024-04-03T09:42:02.146Z,9
2024-04-03T09:44:02.836Z,5
2024-04-03T09:45:02.686Z,0
2024-04-03T09:46:02.402Z,0
2024-04-03T09:47:02.635Z,5
2024-04-03T09:48:02.318Z,5
2024-04-03T09:49:02.113Z,6
2024-04-03T09:50:02.942Z,6
2024-04-03T09:51:02.233Z,6
2024-04-03T09:52:02.334Z,3
2024-04-03T09:55:02.307Z,1
2024-04-03T09:56:02.270Z,1
2024-04-03T09:57:02.149Z,1
2024-04-03T09:58:02.211Z,1
2024-04-03T09:59:02.409Z,4
2024-04-03T10:00:02.566Z,4
2024-04-03T10:01:02.151Z,5
2024-04-03T10:02:02.763Z,5
2024-04-03T10:03:02.576Z,1
2024-04-03T10:04:01.779Z,1
2024-04-03T10:05:02.218Z,4
2024-04-03T10:06:01.953Z,4
2024-04-03T10:07:02.794Z,5
2024-04-03T10:08:02.769Z,5
2024-04-03T10:09:02.448Z,7
2024-04-03T10:10:03.082Z,7
2024-04-03T10:12:02.434Z,6
2024-04-03T10:13:02.343Z,5
2024-04-03T10:14:02.599Z,5
2024-04-03T10:17:03.241Z,5
2024-04-03T10:18:01.940Z,5
2024-04-03T10:19:02.833Z,9
2024-04-03T10:20:02.685Z,9
2024-04-03T10:21:01.939Z,7
2024-04-03T10:22:02.555Z,7
2024-04-03T10:23:02.007Z,6
2024-04-03T10:24:02.841Z,6
2024-04-03T10:25:02.087Z,8
2024-04-03T10:26:02.239Z,8
2024-04-03T10:27:03.051Z,8
2024-04-03T10:28:02.593Z,8
2024-04-03T10:29:02.388Z,6
2024-04-03T10:30:03.048Z,6
2024-04-03T10:32:02.897Z,7
2024-04-03T10:33:02.195Z,11
2024-04-03T10:34:02.197Z,11
2024-04-03T10:35:02.157Z,9
2024-04-03T10:36:02.659Z,9
2024-04-03T10:37:02.291Z,12
2024-04-03T10:39:01.961Z,12
2024-04-03T10:40:02.379Z,12
2024-04-03T10:41:02.933Z,8
2024-04-03T10:42:02.393Z,8
2024-04-03T10:43:02.655Z,11
2024-04-03T10:44:02.691Z,11
2024-04-03T10:45:02.345Z,13
2024-04-03T10:46:02.346Z,13
2024-04-03T10:47:02.138Z,12
2024-04-03T10:48:02.410Z,12
2024-04-03T10:49:01.916Z,18
2024-04-03T10:50:02.904Z,18
2024-04-03T10:51:02.822Z,11
2024-04-03T10:52:02.338Z,11
2024-04-03T10:53:02.775Z,6
2024-04-03T10:54:02.386Z,6
2024-04-03T10:55:02.810Z,3
2024-04-03T10:56:02.098Z,3
2024-04-03T10:57:02.936Z,1
2024-04-03T10:58:02.903Z,1
2024-04-03T10:59:02.527Z,9
2024-04-03T11:00:02.885Z,9
2024-04-03T11:01:02.882Z,9
2024-04-03T11:02:02.833Z,7
2024-04-03T11:03:01.734Z,5
2024-04-03T11:04:01.956Z,5
2024-04-03T11:05:02.380Z,8
2024-04-03T11:06:02.034Z,8
2024-04-03T11:07:02.600Z,8
2024-04-03T11:08:03.059Z,6
2024-04-03T11:09:02.192Z,5
2024-04-03T11:10:02.722Z,5
2024-04-03T11:11:02.295Z,3
2024-04-03T11:12:02.214Z,3
2024-04-03T11:13:02.934Z,3
2024-04-03T11:14:02.048Z,3
2024-04-03T11:15:02.164Z,1
2024-04-03T11:16:02.692Z,1
2024-04-03T11:17:02.559Z,5
2024-04-03T11:18:02.574Z,5
2024-04-03T11:19:02.847Z,1
2024-04-03T11:20:03.060Z,1
2024-04-03T11:21:01.988Z,1
2024-04-03T11:22:02.502Z,1
2024-04-03T11:23:02.542Z,0
2024-04-03T11:24:02.776Z,0
2024-04-03T11:25:02.011Z,3
2024-04-03T11:26:02.724Z,3
2024-04-03T11:27:02.727Z,5
2024-04-03T11:28:02.297Z,5
2024-04-03T11:29:02.485Z,5
2024-04-03T11:30:02.510Z,5
2024-04-03T11:31:02.370Z,3
2024-04-03T11:32:02.678Z,3
2024-04-03T11:33:02.262Z,7
2024-04-03T11:34:01.874Z,7
2024-04-03T11:35:01.986Z,7
2024-04-03T11:36:02.152Z,7
2024-04-03T11:37:02.706Z,4
2024-04-03T11:38:02.127Z,4
2024-04-03T11:39:02.104Z,5
2024-04-03T11:40:02.236Z,5
2024-04-03T11:41:02.032Z,9
2024-04-03T11:42:02.713Z,9
2024-04-03T11:43:02.753Z,6
2024-04-03T11:44:01.835Z,6
2024-04-03T11:45:02.149Z,7
2024-04-03T11:46:07.617Z,7
2024-04-03T11:47:02.579Z,9
2024-04-03T11:48:02.651Z,9
2024-04-03T11:49:02.100Z,6
2024-04-03T11:50:02.417Z,6
2024-04-03T11:51:02.153Z,7
2024-04-03T11:52:02.162Z,7
2024-04-03T11:53:02.372Z,8
2024-04-03T11:54:02.378Z,8
2024-04-03T11:55:02.855Z,7
2024-04-03T11:56:02.115Z,7
2024-04-03T11:57:02.911Z,5
2024-04-03T11:58:02.115Z,5
2024-04-03T11:59:02.643Z,7
2024-04-03T12:00:03.069Z,7
2024-04-03T12:01:02.504Z,8
2024-04-03T12:02:02.695Z,8
2024-04-03T12:03:02.520Z,5
2024-04-03T12:04:02.689Z,5
2024-04-03T12:05:02.454Z,3
2024-04-03T12:06:02.687Z,3
2024-04-03T12:07:02.448Z,5
2024-04-03T12:08:02.646Z,5
2024-04-03T12:09:02.645Z,5
2024-04-03T12:10:02.259Z,5
2024-04-03T12:11:01.889Z,7
2024-04-03T12:12:02.390Z,7
2024-04-03T12:13:02.715Z,6
2024-04-03T12:14:02.111Z,6
2024-04-03T12:15:02.102Z,5
2024-04-03T12:16:02.609Z,5
2024-04-03T12:17:02.592Z,6
2024-04-03T12:18:02.455Z,6
2024-04-03T12:19:02.064Z,5
2024-04-03T12:20:02.879Z,5
2024-04-03T12:21:03.123Z,4
2024-04-03T12:22:02.461Z,4
2024-04-03T12:23:02.253Z,1
2024-04-03T12:24:02.871Z,1
2024-04-03T12:25:02.756Z,4
2024-04-03T12:26:02.627Z,4
2024-04-03T12:27:02.548Z,1
2024-04-03T12:28:02.500Z,1
2024-04-03T12:29:02.289Z,0
2024-04-03T12:30:02.308Z,0
2024-04-03T12:31:02.266Z,3
2024-04-03T12:32:02.489Z,3
2024-04-03T12:34:02.561Z,3
2024-04-03T12:35:02.928Z,3
2024-04-03T12:36:02.188Z,3
2024-04-03T12:37:09.012Z,3
2024-04-03T12:38:20.791Z,3
2024-04-03T12:39:02.474Z,4
2024-04-03T12:40:02.844Z,4
2024-04-03T12:41:02.806Z,1
2024-04-03T12:42:02.723Z,1
2024-04-03T12:43:02.433Z,3
2024-04-03T12:44:02.608Z,3
2024-04-03T12:45:02.167Z,3
2024-04-03T12:46:02.394Z,3
2024-04-03T12:47:02.617Z,0
2024-04-03T12:48:02.542Z,0
2024-04-03T12:49:02.594Z,4
2024-04-03T12:50:02.370Z,4
2024-04-03T12:51:01.840Z,1
2024-04-03T12:52:02.891Z,1
2024-04-03T12:53:02.141Z,4
2024-04-03T12:54:02.592Z,4
2024-04-03T12:55:02.583Z,3
2024-04-03T12:56:02.940Z,3
2024-04-03T12:57:02.693Z,1
2024-04-03T12:58:02.714Z,1
2024-04-03T12:59:01.850Z,4
2024-04-03T13:00:03.077Z,4
2024-04-03T13:01:02.705Z,4
2024-04-03T13:02:02.567Z,4
2024-04-03T13:03:02.098Z,6
2024-04-03T13:04:02.684Z,6
2024-04-03T13:05:02.328Z,6
2024-04-03T13:06:02.995Z,6
2024-04-03T13:07:02.172Z,6
2024-04-03T13:08:02.382Z,4
2024-04-03T13:09:02.583Z,1
2024-04-03T13:10:01.818Z,1
2024-04-03T13:11:02.847Z,3
2024-04-03T13:12:02.235Z,3
2024-04-03T13:13:02.760Z,3
2024-04-03T13:14:02.143Z,3
2024-04-03T13:15:02.180Z,1
2024-04-03T13:16:02.586Z,1
2024-04-03T13:17:02.630Z,1
2024-04-03T13:18:02.630Z,1
2024-04-03T13:19:02.902Z,1
2024-04-03T13:20:02.379Z,1
2024-04-03T13:21:02.070Z,4
2024-04-03T13:22:02.314Z,4
2024-04-03T13:23:02.187Z,4
2024-04-03T13:25:02.633Z,5
2024-04-03T13:26:02.939Z,5
2024-04-03T13:27:02.848Z,4
2024-04-03T13:28:03.067Z,4
2024-04-03T13:29:02.783Z,3
2024-04-03T13:30:02.806Z,3
2024-04-03T13:31:02.759Z,4
2024-04-03T13:32:03.108Z,4
2024-04-03T13:33:02.774Z,4
2024-04-03T13:34:02.279Z,4
2024-04-03T13:35:02.650Z,3
2024-04-03T13:36:02.225Z,3
2024-04-03T13:37:02.989Z,3
2024-04-03T13:38:03.003Z,3
2024-04-03T13:39:01.878Z,3
2024-04-03T13:40:02.166Z,3
2024-04-03T13:42:02.689Z,4
2024-04-03T13:43:02.075Z,5
2024-04-03T13:44:02.747Z,5
2024-04-03T13:45:02.783Z,4
2024-04-03T13:46:02.180Z,4
2024-04-03T13:47:02.647Z,5
2024-04-03T13:48:02.568Z,5
2024-04-03T13:49:02.325Z,5
2024-04-03T13:50:02.267Z,5
2024-04-03T13:51:02.181Z,7
2024-04-03T13:52:02.881Z,7
2024-04-03T13:53:01.841Z,5
2024-04-03T13:54:02.562Z,5
2024-04-03T13:55:02.803Z,1
2024-04-03T13:56:02.842Z,1
2024-04-03T13:57:02.648Z,6
2024-04-03T13:58:02.731Z,6
2024-04-03T13:59:02.797Z,3
2024-04-03T14:00:02.394Z,3
2024-04-03T14:01:02.764Z,4
2024-04-03T14:02:03.093Z,4
2024-04-03T14:03:02.571Z,3
2024-04-03T14:04:02.296Z,3
2024-04-03T14:05:02.403Z,6
2024-04-03T14:06:02.991Z,6
2024-04-03T14:07:02.603Z,6
2024-04-03T14:08:02.541Z,8
2024-04-03T14:09:02.426Z,5
2024-04-03T14:10:02.736Z,5
2024-04-03T14:11:02.177Z,5
2024-04-03T14:12:02.652Z,5
2024-04-03T14:13:02.622Z,5
2024-04-03T14:14:02.467Z,5
2024-04-03T14:15:02.302Z,12
2024-04-03T14:16:02.717Z,12
2024-04-03T14:17:02.572Z,4
2024-04-03T14:18:02.619Z,4
2024-04-03T14:19:02.879Z,1
2024-04-03T14:20:03.206Z,1
2024-04-03T14:21:02.296Z,5
2024-04-03T14:22:02.483Z,5
2024-04-03T14:23:02.695Z,8
2024-04-03T14:24:02.907Z,8
2024-04-03T14:25:03.276Z,13
2024-04-03T14:27:02.879Z,8
2024-04-03T14:28:02.514Z,8
2024-04-03T14:29:02.578Z,9
2024-04-03T14:30:02.928Z,9
2024-04-03T14:31:02.694Z,9
2024-04-03T14:32:01.916Z,9
2024-04-03T14:33:02.853Z,7
2024-04-03T14:34:02.794Z,7
2024-04-03T14:35:02.386Z,17
2024-04-03T14:36:02.538Z,17
2024-04-03T14:37:02.708Z,14
2024-04-03T14:38:02.123Z,14
2024-04-03T14:39:02.297Z,13
2024-04-03T14:40:03.148Z,13
2024-04-03T14:42:02.741Z,9
2024-04-03T14:44:02.884Z,3
2024-04-03T14:46:03.107Z,5
2024-04-03T14:48:02.312Z,9
2024-04-03T14:49:02.714Z,7
2024-04-03T14:50:02.704Z,7
2024-04-03T14:51:02.762Z,8
2024-04-03T14:52:02.771Z,8
2024-04-03T14:53:02.066Z,11
2024-04-03T14:54:02.738Z,11
2024-04-03T14:55:02.451Z,5
2024-04-03T14:56:01.967Z,5
2024-04-03T14:57:02.371Z,5
2024-04-03T14:58:02.761Z,5
2024-04-03T14:59:02.167Z,7
2024-04-03T15:00:02.488Z,7
2024-04-03T15:01:02.670Z,5
2024-04-03T15:02:02.634Z,5
2024-04-03T15:03:02.569Z,15
2024-04-03T15:06:02.393Z,7
2024-04-03T15:07:02.753Z,12
2024-04-03T15:08:02.455Z,12
2024-04-03T15:09:02.213Z,6
2024-04-03T15:10:02.737Z,6
2024-04-03T15:11:02.257Z,7
2024-04-03T15:12:01.945Z,7
2024-04-03T15:13:02.970Z,19
2024-04-03T15:14:02.151Z,19
2024-04-03T15:15:02.556Z,6
2024-04-03T15:16:02.714Z,6
2024-04-03T15:17:02.241Z,20
2024-04-03T15:18:02.543Z,20
2024-04-03T15:19:02.270Z,19
2024-04-03T15:20:02.532Z,19
2024-04-03T15:21:02.125Z,32
2024-04-03T15:22:02.373Z,32
2024-04-03T15:23:02.554Z,21
2024-04-03T15:24:02.438Z,21
2024-04-03T15:25:02.709Z,28
2024-04-03T15:26:02.377Z,28
2024-04-03T15:27:02.833Z,28
2024-04-03T15:28:02.592Z,28
2024-04-03T15:29:02.478Z,25
2024-04-03T15:30:02.508Z,25
2024-04-03T15:31:02.812Z,32
2024-04-03T15:32:01.934Z,32
2024-04-03T15:33:02.587Z,25
2024-04-03T15:34:02.786Z,25
2024-04-03T15:35:02.643Z,38
2024-04-03T15:36:02.770Z,38
2024-04-03T15:37:02.246Z,30
2024-04-03T15:38:02.249Z,30
2024-04-03T15:39:02.558Z,23
2024-04-03T15:40:02.705Z,23
2024-04-03T15:41:02.712Z,18
2024-04-03T15:42:02.324Z,18
2024-04-03T15:43:02.366Z,27
2024-04-03T15:44:02.856Z,27
2024-04-03T15:45:02.919Z,23
2024-04-03T15:46:02.216Z,23
2024-04-03T15:47:02.574Z,19